x

West Dixon Entrance (46205) Wave Buoy

10:00am - Thu 25th Dec 2014 All times are PST. -8 hours from GMT.

  • Sig Wave height 8.2ft
  • Peak Period 11s
  • Wind
    13mph, 16mph gusts
  • Sea Temp 47°f
  • Air Temp 46°f
  • Sea Pressure 1018.2mb
  • West Dixon Entrance
  • West Dixon Entrance

More Historic Weather Station data

Upgrade to MSW Pro to gain access to the past 30 days of data for over 8000 Wavebouys and Weather Stations around the globe.

Join Pro

Comparision Forecast

View Surf forecast
   
Thu 12/25 10:00am 8ft 11s 13 16 mph 1018.2mb 47f 46f
9:00am 8ft 10s 11 16 mph 1017.4mb 47f 46f
8:00am 8ft 8s 16 18 mph 1016.5mb 47f 46f
7:00am 8ft 12s 16 18 mph 1016mb 47f 46f
6:00am 7.5ft 9s 11 13 mph 1015.8mb 47f 46f
5:00am 7.5ft 8s 13 16 mph 1015.3mb 47f 46f
4:00am 7.5ft 8s 13 18 mph 1014.9mb 47f 46f
3:00am 8ft 8s 18 20 mph 1014.5mb 47f 46f
2:00am 8ft 9s 18 22 mph 1013.6mb 47f 46f
1:00am 8ft 9s 16 20 mph 1013.5mb 47f 46f
12:00am 8ft 10s 18 22 mph 1013.7mb 47f 45f
Wed 12/24 11:00pm 8ft 8s 20 22 mph 1014.3mb 47f 44f
10:00pm 8.5ft 8s 16 18 mph 1014.7mb 47f 43f
9:00pm 9ft 10s 11 16 mph 1015.8mb 47f 42f
8:00pm 10ft 9s 11 13 mph 1015.9mb 47f 42f
7:00pm 9.5ft 11s 13 20 mph 1015.7mb 47f 43f
6:00pm 11ft 10s 9 13 mph 1016.2mb 47f 43f
5:00pm 11.5ft 9s 13 18 mph 1016.4mb 47f 43f
4:00pm 12.5ft 10s 18 22 mph 1016.6mb 47f 44f
3:00pm 12ft 9s 16 20 mph 1015.9mb 47f 44f
2:00pm 11.5ft 8s 18 22 mph 1015.7mb 47f 45f
1:00pm 12ft 8s 20 25 mph 1015.7mb 47f 45f
12:00pm 12ft 8s 22 27 mph 1015.3mb 47f 45f
11:00am 13ft 9s 22 27 mph 1015.2mb 47f 45f
10:00am 13ft 9s 25 29 mph 1014.6mb 47f 45f
9:00am 15ft 10s 27 31 mph 1013.8mb 47f 45f
8:00am 14.5ft 10s 27 34 mph 1012.7mb 47f 45f
7:00am 15ft 10s 29 38 mph 1011.8mb 47f 46f
6:00am 15.5ft 9s 27 34 mph 1010.9mb 47f 46f
5:00am 17.5ft 9s 29 36 mph 1009.9mb 47f 46f
4:00am 18ft 9s 29 38 mph 1008.8mb 47f 46f
3:00am 17.5ft 10s 31 40 mph 1007.4mb 47f 46f
2:00am 20.5ft 10s 31 40 mph 1006mb 47f 47f
1:00am 20ft 9s 31 45 mph 1004.8mb 47f 46f
12:00am 17.5ft 11s 34 45 mph 1003.4mb 47f 46f
Tue 12/23 11:00pm 18.5ft 12s 34 45 mph 1002.1mb 48f 46f
10:00pm 16.5ft 15s 31 40 mph 1000.4mb 48f 47f
9:00pm 17ft 13s 34 40 mph 999mb 48f 47f
8:00pm 21ft 12s 31 40 mph 997.6mb 48f 46f
7:00pm 23.5ft 14s 34 43 mph 995.5mb 48f 45f
6:00pm 22.5ft 13s 36 45 mph 993.3mb 48f 45f
5:00pm 23.5ft 14s 40 49 mph 990.5mb 48f 44f
4:00pm 24.5ft 15s 34 40 mph 987.6mb 48f 46f
3:00pm 24.5ft 15s 31 40 mph 985.3mb 48f 46f
2:00pm 22ft 14s 31 40 mph 983.5mb 48f 46f
1:00pm 25.5ft 14s 36 45 mph 982.8mb 48f 46f
12:00pm 24ft 14s 31 43 mph 982.7mb 48f 46f
11:00am 26.5ft 14s 31 40 mph 982.1mb 48f 46f
10:00am 27ft 12s 31 38 mph 981.3mb 48f 46f
9:00am 22.5ft 12s 31 40 mph 980.2mb 48f 47f
8:00am 22ft 11s 34 45 mph 980mb 48f 47f
7:00am 20ft 11s 38 49 mph 981.6mb 48f 46f
6:00am 20ft 11s 34 45 mph 984.2mb 48f 47f
5:00am 20.5ft 11s 31 40 mph 985.5mb 48f 47f
4:00am 19.5ft 9s 29 36 mph 986.7mb 48f 47f
3:00am 19.5ft 11s 29 36 mph 989.2mb 48f 47f
2:00am 18.5ft 10s 38 47 mph 991mb 48f 46f
1:00am  -   -  43
mph
- - 45f
12:00am 15ft 7s 43 56 mph 994.8mb 49f 44f
Mon 12/22 11:00pm 13ft 13s 40 49 mph 999mb 49f 44f
10:00pm 10.5ft 14s 36 47 mph 1003.2mb 49f 45f
9:00pm 9.5ft 14s 31 43 mph 1006.7mb 49f 45f
8:00pm 10ft 14s 27 36 mph 1010.1mb 49f 47f
6:00pm 11ft 12s 25 31 mph 1014mb 48f 47f
5:00pm 11.5ft 12s 22 27 mph 1016mb 48f 48f
2:00pm 11.5ft 12s 18 20 mph 1019.2mb 49f 48f
1:00pm 11ft 14s 16 20 mph 1020.3mb 48f 47f
12:00pm 11.5ft 12s 13 16 mph 1021.3mb 48f 47f
11:00am 11ft 12s 11 13 mph 1020.9mb 48f 47f
10:00am 11ft 14s 9 13 mph 1020.7mb 49f 47f
9:00am 12ft 15s 11 16 mph 1020.6mb 48f 47f
8:00am 12ft 13s 11 16 mph 1020mb 48f 47f
7:00am 13.5ft 14s 13 18 mph 1019.5mb 48f 47f
6:00am 14ft 14s 18 22 mph 1019.6mb 48f 47f
5:00am 14ft 15s 16 20 mph 1018.5mb 48f 47f
4:00am 13.5ft 11s 18 25 mph 1017.9mb 48f 47f
3:00am 13.5ft 14s 20 25 mph 1016.7mb 48f 47f
2:00am 13ft 13s 20 25 mph 1015.2mb 48f 46f
1:00am 14ft 14s 22 27 mph 1014mb 48f 46f
12:00am 14ft 14s 22 29 mph 1012.8mb 48f 47f
Sun 12/21 11:00pm 14ft 14s 25 29 mph 1011.6mb 48f 47f
10:00pm 13ft 12s 25 31 mph 1010.1mb 48f 47f
9:00pm 13ft 14s 22 27 mph 1008.8mb 48f 46f
8:00pm 14ft 14s 27 31 mph 1007.2mb 48f 47f